createdAt,value
2024-03-15T00:00:31.797Z,89
2024-03-15T00:01:31.850Z,89
2024-03-15T00:02:31.772Z,89
2024-03-15T00:03:31.881Z,89
2024-03-15T00:04:31.787Z,90
2024-03-15T00:05:31.782Z,90
2024-03-15T00:06:31.873Z,90
2024-03-15T00:07:31.813Z,90
2024-03-15T00:08:31.782Z,90
2024-03-15T00:09:31.797Z,90
2024-03-15T00:10:31.839Z,90
2024-03-15T00:11:31.812Z,90
2024-03-15T00:12:31.946Z,90
2024-03-15T00:13:31.835Z,90
2024-03-15T00:14:31.785Z,90
2024-03-15T00:15:31.920Z,90
2024-03-15T00:16:31.794Z,90
2024-03-15T00:17:31.839Z,90
2024-03-15T00:18:31.992Z,90
2024-03-15T00:19:31.903Z,90
2024-03-15T00:20:31.946Z,90
2024-03-15T00:21:32.056Z,90
2024-03-15T00:22:31.928Z,90
2024-03-15T00:23:31.877Z,90
2024-03-15T00:24:31.923Z,90
2024-03-15T00:25:31.901Z,90
2024-03-15T00:26:32.723Z,90
2024-03-15T00:27:31.982Z,90
2024-03-15T00:28:31.961Z,90
2024-03-15T00:29:31.917Z,90
2024-03-15T00:30:31.926Z,90
2024-03-15T00:31:31.879Z,90
2024-03-15T00:32:31.915Z,90
2024-03-15T00:33:31.937Z,90
2024-03-15T00:34:31.935Z,90
2024-03-15T00:35:31.924Z,90
2024-03-15T00:36:32.450Z,90
2024-03-15T00:37:32.021Z,90
2024-03-15T00:38:31.911Z,90
2024-03-15T00:39:31.943Z,90
2024-03-15T00:40:31.905Z,90
2024-03-15T00:41:31.888Z,90
2024-03-15T00:42:32.025Z,90
2024-03-15T00:43:31.873Z,90
2024-03-15T00:44:31.891Z,90
2024-03-15T00:45:31.884Z,90
2024-03-15T00:46:31.950Z,90
2024-03-15T00:47:32.045Z,90
2024-03-15T00:48:32.122Z,90
2024-03-15T00:49:31.772Z,90
2024-03-15T00:50:31.837Z,90
2024-03-15T00:51:31.861Z,90
2024-03-15T00:52:31.750Z,90
2024-03-15T00:53:31.978Z,90
2024-03-15T00:54:31.832Z,91
2024-03-15T00:55:32.180Z,91
2024-03-15T00:56:31.771Z,91
2024-03-15T00:57:31.834Z,91
2024-03-15T00:58:31.782Z,91
2024-03-15T00:59:31.793Z,91
2024-03-15T01:00:31.793Z,91
2024-03-15T01:01:31.842Z,91
2024-03-15T01:02:31.868Z,91
2024-03-15T01:03:31.890Z,91
2024-03-15T01:04:31.772Z,91
2024-03-15T01:05:31.818Z,91
2024-03-15T01:06:31.859Z,91
2024-03-15T01:07:31.857Z,91
2024-03-15T01:08:31.812Z,91
2024-03-15T01:09:31.859Z,91
2024-03-15T01:10:31.836Z,91
2024-03-15T01:11:31.811Z,91
2024-03-15T01:12:31.844Z,91
2024-03-15T01:13:31.812Z,91
2024-03-15T01:14:31.754Z,91
2024-03-15T01:15:31.823Z,91
2024-03-15T01:16:31.799Z,91
2024-03-15T01:17:31.919Z,91
2024-03-15T01:18:31.980Z,92
2024-03-15T01:19:31.830Z,92
2024-03-15T01:20:31.794Z,92
2024-03-15T01:21:31.803Z,92
2024-03-15T01:22:31.847Z,92
2024-03-15T01:23:31.804Z,92
2024-03-15T01:24:31.829Z,92
2024-03-15T01:25:31.767Z,92
2024-03-15T01:26:31.760Z,92
2024-03-15T01:27:31.790Z,93
2024-03-15T01:28:31.833Z,93
2024-03-15T01:29:31.753Z,93
2024-03-15T01:30:31.844Z,93
2024-03-15T01:31:31.781Z,93
2024-03-15T01:32:31.848Z,94
2024-03-15T01:33:31.845Z,94
2024-03-15T01:34:31.738Z,94
2024-03-15T01:35:31.808Z,94
2024-03-15T01:36:31.813Z,94
2024-03-15T01:37:31.843Z,95
2024-03-15T01:38:31.769Z,95
2024-03-15T01:39:31.910Z,95
2024-03-15T01:40:31.786Z,95
2024-03-15T01:41:31.818Z,95
2024-03-15T01:42:31.886Z,95
2024-03-15T01:43:31.820Z,95
2024-03-15T01:44:31.794Z,95
2024-03-15T01:45:31.796Z,96
2024-03-15T01:46:31.841Z,96
2024-03-15T01:47:31.847Z,96
2024-03-15T01:48:31.842Z,96
2024-03-15T01:49:31.793Z,96
2024-03-15T01:50:31.800Z,96
2024-03-15T01:51:32.118Z,96
2024-03-15T01:52:31.777Z,96
2024-03-15T01:53:31.772Z,96
2024-03-15T01:54:31.817Z,96
2024-03-15T01:55:31.814Z,96
2024-03-15T01:56:31.822Z,96
2024-03-15T01:57:31.942Z,96
2024-03-15T01:58:31.775Z,96
2024-03-15T01:59:31.844Z,97
2024-03-15T02:00:32.026Z,97
2024-03-15T02:01:31.868Z,97
2024-03-15T02:02:31.777Z,97
2024-03-15T02:03:31.803Z,97
2024-03-15T02:04:31.780Z,97
2024-03-15T02:05:31.804Z,97
2024-03-15T02:06:31.781Z,97
2024-03-15T02:07:31.852Z,97
2024-03-15T02:08:31.795Z,97
2024-03-15T02:09:31.811Z,97
2024-03-15T02:10:31.814Z,97
2024-03-15T02:11:31.795Z,97
2024-03-15T02:12:31.876Z,97
2024-03-15T02:13:31.819Z,97
2024-03-15T02:14:31.795Z,97
2024-03-15T02:15:31.819Z,96
2024-03-15T02:16:31.780Z,96
2024-03-15T02:17:31.834Z,96
2024-03-15T02:18:31.866Z,96
2024-03-15T02:19:31.806Z,96
2024-03-15T02:20:31.775Z,96
2024-03-15T02:21:31.757Z,96
2024-03-15T02:22:31.791Z,96
2024-03-15T02:23:31.757Z,96
2024-03-15T02:24:31.828Z,96
2024-03-15T02:25:31.834Z,96
2024-03-15T02:26:31.762Z,96
2024-03-15T02:27:31.804Z,96
2024-03-15T02:28:31.776Z,96
2024-03-15T02:29:31.777Z,95
2024-03-15T02:30:31.801Z,95
2024-03-15T02:31:31.773Z,95
2024-03-15T02:32:31.760Z,95
2024-03-15T02:33:31.857Z,95
2024-03-15T02:34:31.809Z,95
2024-03-15T02:35:32.890Z,95
2024-03-15T02:36:31.803Z,95
2024-03-15T02:37:31.762Z,95
2024-03-15T02:38:31.806Z,94
2024-03-15T02:39:31.792Z,94
2024-03-15T02:40:31.806Z,94
2024-03-15T02:41:31.740Z,94
2024-03-15T02:42:31.789Z,94
2024-03-15T02:43:31.818Z,94
2024-03-15T02:44:31.761Z,94
2024-03-15T02:45:31.765Z,94
2024-03-15T02:46:31.798Z,94
2024-03-15T02:47:31.784Z,94
2024-03-15T02:48:31.823Z,93
2024-03-15T02:49:31.813Z,93
2024-03-15T02:50:31.793Z,93
2024-03-15T02:51:31.762Z,93
2024-03-15T02:52:31.793Z,93
2024-03-15T02:53:31.784Z,93
2024-03-15T02:54:31.796Z,93
2024-03-15T02:55:31.819Z,93
2024-03-15T02:56:31.745Z,93
2024-03-15T02:57:31.865Z,93
2024-03-15T02:58:31.755Z,93
2024-03-15T02:59:31.779Z,93
2024-03-15T03:00:31.777Z,93
2024-03-15T03:01:31.815Z,93
2024-03-15T03:02:31.857Z,93
2024-03-15T03:03:31.803Z,93
2024-03-15T03:04:31.744Z,93
2024-03-15T03:05:31.911Z,93
2024-03-15T03:06:31.888Z,93
2024-03-15T03:07:31.780Z,93
2024-03-15T03:08:31.757Z,93
2024-03-15T03:09:31.793Z,93
2024-03-15T03:10:31.757Z,93
2024-03-15T03:11:31.724Z,92
2024-03-15T03:12:31.798Z,92
2024-03-15T03:13:31.813Z,92
2024-03-15T03:14:31.763Z,92
2024-03-15T03:15:31.800Z,92
2024-03-15T03:16:31.748Z,92
2024-03-15T03:17:31.791Z,92
2024-03-15T03:18:31.973Z,92
2024-03-15T03:19:31.778Z,92
2024-03-15T03:20:31.737Z,92
2024-03-15T03:21:31.803Z,92
2024-03-15T03:22:31.768Z,92
2024-03-15T03:23:31.809Z,92
2024-03-15T03:24:31.816Z,92
2024-03-15T03:25:31.889Z,92
2024-03-15T03:26:31.862Z,92
2024-03-15T03:27:31.795Z,92
2024-03-15T03:28:31.764Z,92
2024-03-15T03:29:31.800Z,92
2024-03-15T03:30:31.812Z,92
2024-03-15T03:31:31.760Z,92
2024-03-15T03:32:31.812Z,92
2024-03-15T03:33:31.809Z,92
2024-03-15T03:34:31.745Z,92
2024-03-15T03:35:31.780Z,91
2024-03-15T03:36:31.802Z,91
2024-03-15T03:37:31.746Z,91
2024-03-15T03:38:31.802Z,91
2024-03-15T03:39:31.817Z,91
2024-03-15T03:40:31.782Z,91
2024-03-15T03:41:31.778Z,92
2024-03-15T03:42:31.751Z,92
2024-03-15T03:43:31.839Z,92
2024-03-15T03:44:31.790Z,92
2024-03-15T03:45:32.093Z,92
2024-03-15T03:46:31.746Z,92
2024-03-15T03:47:31.807Z,92
2024-03-15T03:48:31.746Z,92
2024-03-15T03:49:31.775Z,92
2024-03-15T03:50:31.778Z,92
2024-03-15T03:51:31.810Z,92
2024-03-15T03:52:31.793Z,92
2024-03-15T03:53:31.764Z,92
2024-03-15T03:54:31.865Z,92
2024-03-15T03:55:31.763Z,92
2024-03-15T03:56:31.701Z,92
2024-03-15T03:57:42.809Z,92
2024-03-15T03:58:31.762Z,92
2024-03-15T03:59:31.754Z,92
2024-03-15T04:00:31.785Z,92
2024-03-15T04:01:31.826Z,92
2024-03-15T04:02:31.761Z,92
2024-03-15T04:03:31.735Z,92
2024-03-15T04:04:31.778Z,92
2024-03-15T04:05:31.786Z,92
2024-03-15T04:06:31.787Z,92
2024-03-15T04:07:31.894Z,92
2024-03-15T04:08:31.763Z,92
2024-03-15T04:09:31.797Z,92
2024-03-15T04:10:31.839Z,92
2024-03-15T04:11:31.827Z,92
2024-03-15T04:12:31.800Z,92
2024-03-15T04:13:31.776Z,92
2024-03-15T04:14:32.499Z,92
2024-03-15T04:15:31.929Z,92
2024-03-15T04:16:31.779Z,92
2024-03-15T04:17:31.770Z,92
2024-03-15T04:18:31.782Z,92
2024-03-15T04:19:31.755Z,92
2024-03-15T04:20:31.786Z,92
2024-03-15T04:21:31.763Z,92
2024-03-15T04:22:31.737Z,92
2024-03-15T04:23:31.782Z,92
2024-03-15T04:24:31.825Z,92
2024-03-15T04:25:31.777Z,92
2024-03-15T04:26:31.744Z,92
2024-03-15T04:27:31.793Z,92
2024-03-15T04:28:31.765Z,92
2024-03-15T04:29:31.722Z,92
2024-03-15T04:30:31.839Z,92
2024-03-15T04:31:31.788Z,92
2024-03-15T04:32:31.781Z,92
2024-03-15T04:33:31.840Z,92
2024-03-15T04:34:31.750Z,92
2024-03-15T04:35:31.773Z,92
2024-03-15T04:36:31.984Z,92
2024-03-15T04:37:31.733Z,92
2024-03-15T04:38:31.745Z,92
2024-03-15T04:39:31.839Z,92
2024-03-15T04:40:31.772Z,92
2024-03-15T04:41:31.751Z,92
2024-03-15T04:42:31.725Z,92
2024-03-15T04:43:31.732Z,92
2024-03-15T04:44:31.778Z,92
2024-03-15T04:45:31.846Z,92
2024-03-15T04:46:31.762Z,92
2024-03-15T04:47:31.763Z,92
2024-03-15T04:48:31.818Z,93
2024-03-15T04:49:31.759Z,93
2024-03-15T04:50:31.766Z,92
2024-03-15T04:51:31.780Z,93
2024-03-15T04:52:31.730Z,93
2024-03-15T04:53:31.743Z,93
2024-03-15T04:54:31.834Z,93
2024-03-15T04:55:32.900Z,93
2024-03-15T04:56:31.757Z,93
2024-03-15T04:57:31.914Z,93
2024-03-15T04:58:31.790Z,93
2024-03-15T04:59:31.845Z,93
2024-03-15T05:00:31.858Z,93
2024-03-15T05:01:31.803Z,93
2024-03-15T05:02:31.698Z,93
2024-03-15T05:03:31.808Z,93
2024-03-15T05:04:31.802Z,93
2024-03-15T05:05:31.903Z,93
2024-03-15T05:06:31.889Z,93
2024-03-15T05:07:31.797Z,93
2024-03-15T05:08:31.764Z,93
2024-03-15T05:09:31.843Z,93
2024-03-15T05:10:31.926Z,93
2024-03-15T05:11:31.789Z,93
2024-03-15T05:12:31.766Z,93
2024-03-15T05:13:31.775Z,93
2024-03-15T05:14:31.772Z,93
2024-03-15T05:15:31.839Z,93
2024-03-15T05:16:31.806Z,93
2024-03-15T05:17:31.700Z,93
2024-03-15T05:18:31.771Z,93
2024-03-15T05:19:36.426Z,93
2024-03-15T05:20:31.768Z,93
2024-03-15T05:21:31.962Z,93
2024-03-15T05:22:31.756Z,93
2024-03-15T05:23:31.801Z,93
2024-03-15T05:24:31.765Z,93
2024-03-15T05:25:31.772Z,93
2024-03-15T05:26:31.750Z,93
2024-03-15T05:27:31.848Z,94
2024-03-15T05:28:31.776Z,94
2024-03-15T05:29:31.834Z,94
2024-03-15T05:30:31.803Z,94
2024-03-15T05:31:31.768Z,94
2024-03-15T05:32:31.808Z,94
2024-03-15T05:33:31.785Z,94
2024-03-15T05:34:31.815Z,94
2024-03-15T05:35:31.755Z,94
2024-03-15T05:36:31.784Z,94
2024-03-15T05:37:31.747Z,94
2024-03-15T05:38:31.782Z,94
2024-03-15T05:39:31.828Z,94
2024-03-15T05:40:31.767Z,94
2024-03-15T05:41:31.777Z,94
2024-03-15T05:42:31.777Z,94
2024-03-15T05:43:31.735Z,94
2024-03-15T05:44:31.732Z,94
2024-03-15T05:45:31.797Z,94
2024-03-15T05:46:31.821Z,94
2024-03-15T05:47:31.761Z,94
2024-03-15T05:48:31.822Z,94
2024-03-15T05:49:31.771Z,94
2024-03-15T05:50:31.806Z,94
2024-03-15T05:51:31.781Z,93
2024-03-15T05:52:31.766Z,93
2024-03-15T05:53:31.750Z,93
2024-03-15T05:54:31.858Z,93
2024-03-15T05:55:31.834Z,93
2024-03-15T05:56:31.784Z,93
2024-03-15T05:57:31.991Z,93
2024-03-15T05:58:31.795Z,93
2024-03-15T05:59:31.775Z,92
2024-03-15T06:00:31.803Z,92
2024-03-15T06:01:31.789Z,92
2024-03-15T06:02:31.811Z,92
2024-03-15T06:03:31.799Z,92
2024-03-15T06:04:31.745Z,92
2024-03-15T06:05:31.752Z,92
2024-03-15T06:06:31.819Z,92
2024-03-15T06:07:31.730Z,92
2024-03-15T06:08:31.739Z,92
2024-03-15T06:09:31.919Z,92
2024-03-15T06:10:31.787Z,92
2024-03-15T06:11:31.772Z,91
2024-03-15T06:12:31.904Z,91
2024-03-15T06:13:31.718Z,91
2024-03-15T06:14:34.984Z,91
2024-03-15T06:15:31.811Z,91
2024-03-15T06:16:31.748Z,91
2024-03-15T06:17:31.843Z,91
2024-03-15T06:18:31.889Z,91
2024-03-15T06:19:31.718Z,91
2024-03-15T06:20:31.762Z,90
2024-03-15T06:21:31.909Z,90
2024-03-15T06:22:31.789Z,90
2024-03-15T06:23:31.757Z,90
2024-03-15T06:24:31.815Z,90
2024-03-15T06:25:31.795Z,90
2024-03-15T06:26:31.770Z,90
2024-03-15T06:27:31.768Z,90
2024-03-15T06:28:31.737Z,90
2024-03-15T06:29:31.687Z,90
2024-03-15T06:30:31.774Z,90
2024-03-15T06:31:31.768Z,90
2024-03-15T06:32:31.787Z,90
2024-03-15T06:33:31.793Z,90
2024-03-15T06:34:31.692Z,90
2024-03-15T06:35:31.778Z,90
2024-03-15T06:36:31.815Z,90
2024-03-15T06:37:31.726Z,90
2024-03-15T06:38:31.878Z,90
2024-03-15T06:39:31.811Z,90
2024-03-15T06:40:31.776Z,90
2024-03-15T06:41:31.669Z,90
2024-03-15T06:42:31.782Z,90
2024-03-15T06:43:31.761Z,91
2024-03-15T06:44:31.701Z,90
2024-03-15T06:45:31.825Z,91
2024-03-15T06:46:31.737Z,91
2024-03-15T06:47:31.759Z,91
2024-03-15T06:48:31.782Z,91
2024-03-15T06:49:31.761Z,91
2024-03-15T06:50:31.649Z,91
2024-03-15T06:51:31.809Z,91
2024-03-15T06:52:31.756Z,91
2024-03-15T06:53:31.753Z,91
2024-03-15T06:54:31.749Z,90
2024-03-15T06:55:31.730Z,90
2024-03-15T06:56:31.712Z,90
2024-03-15T06:57:31.896Z,90
2024-03-15T06:58:31.821Z,90
2024-03-15T06:59:31.788Z,90
2024-03-15T07:00:31.870Z,90
2024-03-15T07:01:31.829Z,90
2024-03-15T07:02:31.834Z,90
2024-03-15T07:03:31.726Z,90
2024-03-15T07:04:31.762Z,90
2024-03-15T07:05:31.809Z,90
2024-03-15T07:06:31.846Z,90
2024-03-15T07:07:31.779Z,89
2024-03-15T07:08:31.769Z,89
2024-03-15T07:09:31.799Z,89
2024-03-15T07:10:31.698Z,89
2024-03-15T07:11:31.774Z,89
2024-03-15T07:12:31.773Z,89
2024-03-15T07:13:31.753Z,88
2024-03-15T07:14:31.708Z,88
2024-03-15T07:15:31.801Z,88
2024-03-15T07:16:31.790Z,88
2024-03-15T07:17:31.852Z,88
2024-03-15T07:18:31.788Z,88
2024-03-15T07:19:31.856Z,88
2024-03-15T07:20:31.857Z,88
2024-03-15T07:21:31.792Z,88
2024-03-15T07:22:32.099Z,87
2024-03-15T07:23:31.701Z,87
2024-03-15T07:24:31.786Z,87
2024-03-15T07:25:31.684Z,87
2024-03-15T07:26:31.687Z,87
2024-03-15T07:27:31.886Z,87
2024-03-15T07:28:31.787Z,87
2024-03-15T07:29:31.772Z,87
2024-03-15T07:30:31.728Z,86
2024-03-15T07:31:31.835Z,85
2024-03-15T07:32:31.996Z,85
2024-03-15T07:33:31.895Z,84
2024-03-15T07:34:31.668Z,83
2024-03-15T07:35:31.757Z,82
2024-03-15T07:36:31.794Z,83
2024-03-15T07:37:31.722Z,82
2024-03-15T07:38:31.644Z,82
2024-03-15T07:39:31.789Z,82
2024-03-15T07:40:31.781Z,81
2024-03-15T07:41:31.826Z,81
2024-03-15T07:42:31.767Z,82
2024-03-15T07:43:31.778Z,82
2024-03-15T07:44:31.747Z,82
2024-03-15T07:45:31.874Z,82
2024-03-15T07:46:31.657Z,83
2024-03-15T07:47:31.812Z,83
2024-03-15T07:48:31.757Z,83
2024-03-15T07:49:31.842Z,83
2024-03-15T07:50:31.668Z,84
2024-03-15T07:51:31.892Z,83
2024-03-15T07:52:31.761Z,83
2024-03-15T07:53:31.728Z,83
2024-03-15T07:54:31.749Z,83
2024-03-15T07:55:31.786Z,84
2024-03-15T07:56:31.764Z,84
2024-03-15T07:57:31.820Z,84
2024-03-15T07:58:31.630Z,84
2024-03-15T07:59:31.785Z,84
2024-03-15T08:00:31.827Z,84
2024-03-15T08:01:31.825Z,84
2024-03-15T08:02:31.700Z,84
2024-03-15T08:03:31.770Z,84
2024-03-15T08:04:32.911Z,84
2024-03-15T08:05:31.716Z,84
2024-03-15T08:06:31.655Z,84
2024-03-15T08:07:31.756Z,84
2024-03-15T08:08:31.739Z,85
2024-03-15T08:09:31.753Z,85
2024-03-15T08:10:31.649Z,85
2024-03-15T08:11:31.773Z,85
2024-03-15T08:12:31.834Z,85
2024-03-15T08:13:31.669Z,85
2024-03-15T08:14:31.710Z,85
2024-03-15T08:15:31.765Z,85
2024-03-15T08:16:31.835Z,85
2024-03-15T08:17:31.835Z,85
2024-03-15T08:18:31.815Z,85
2024-03-15T08:19:31.742Z,85
2024-03-15T08:20:31.843Z,85
2024-03-15T08:21:31.808Z,85
2024-03-15T08:22:31.729Z,85
2024-03-15T08:23:31.793Z,85
2024-03-15T08:24:31.770Z,85
2024-03-15T08:25:31.787Z,85
2024-03-15T08:26:31.551Z,85
2024-03-15T08:27:31.742Z,85
2024-03-15T08:28:31.779Z,85
2024-03-15T08:29:31.802Z,85
2024-03-15T08:30:31.801Z,85
2024-03-15T08:31:31.796Z,85
2024-03-15T08:32:31.773Z,85
2024-03-15T08:33:31.808Z,85
2024-03-15T08:34:31.687Z,85
2024-03-15T08:35:31.749Z,85
2024-03-15T08:36:31.808Z,85
2024-03-15T08:37:31.750Z,85
2024-03-15T08:38:31.692Z,85
2024-03-15T08:39:31.789Z,85
2024-03-15T08:40:31.763Z,85
2024-03-15T08:41:31.718Z,85
2024-03-15T08:42:31.650Z,85
2024-03-15T08:43:31.721Z,85
2024-03-15T08:44:31.712Z,85
2024-03-15T08:45:31.774Z,85
2024-03-15T08:46:32.762Z,85
2024-03-15T08:47:38.320Z,85
2024-03-15T08:48:31.961Z,85
2024-03-15T08:49:31.827Z,85
2024-03-15T08:50:31.528Z,85
2024-03-15T08:51:31.969Z,85
2024-03-15T08:52:31.723Z,85
2024-03-15T08:53:31.748Z,85
2024-03-15T08:54:31.571Z,85
2024-03-15T08:55:31.828Z,85
2024-03-15T08:56:31.719Z,84
2024-03-15T08:57:31.757Z,84
2024-03-15T08:58:31.575Z,84
2024-03-15T08:59:31.774Z,84
2024-03-15T09:00:31.790Z,84
2024-03-15T09:01:31.728Z,84
2024-03-15T09:02:31.639Z,84
2024-03-15T09:03:32.551Z,84
2024-03-15T09:04:31.837Z,83
2024-03-15T09:05:31.760Z,83
2024-03-15T09:06:31.565Z,82
2024-03-15T09:07:31.719Z,82
2024-03-15T09:08:31.686Z,82
2024-03-15T09:09:31.817Z,82
2024-03-15T09:10:31.517Z,82
2024-03-15T09:11:31.795Z,82
2024-03-15T09:12:31.722Z,81
2024-03-15T09:13:34.261Z,81
2024-03-15T09:14:31.483Z,81
2024-03-15T09:15:31.802Z,81
2024-03-15T09:16:31.751Z,81
2024-03-15T09:17:31.782Z,81
2024-03-15T09:18:31.673Z,81
2024-03-15T09:19:31.752Z,80
2024-03-15T09:20:31.732Z,80
2024-03-15T09:21:31.763Z,80
2024-03-15T09:22:31.507Z,81
2024-03-15T09:23:31.696Z,80
2024-03-15T09:24:31.798Z,80
2024-03-15T09:25:31.831Z,79
2024-03-15T09:26:31.487Z,80
2024-03-15T09:27:33.204Z,80
2024-03-15T09:28:33.483Z,79
2024-03-15T09:29:31.763Z,79
2024-03-15T09:30:31.577Z,80
2024-03-15T09:32:31.913Z,80
2024-03-15T09:33:31.746Z,80
2024-03-15T09:34:31.901Z,81
2024-03-15T09:35:32.023Z,80
2024-03-15T09:36:31.727Z,81
2024-03-15T09:37:31.795Z,80
2024-03-15T09:38:31.521Z,81
2024-03-15T09:39:31.767Z,80
2024-03-15T09:40:31.740Z,81
2024-03-15T09:41:31.761Z,81
2024-03-15T09:42:33.265Z,81
2024-03-15T09:43:31.924Z,81
2024-03-15T09:44:31.765Z,81
2024-03-15T09:45:31.744Z,81
2024-03-15T09:46:31.482Z,81
2024-03-15T09:47:31.780Z,81
2024-03-15T09:48:33.134Z,81
2024-03-15T09:49:31.790Z,81
2024-03-15T09:50:31.517Z,81
2024-03-15T09:51:31.815Z,81
2024-03-15T09:52:31.727Z,81
2024-03-15T09:53:31.704Z,82
2024-03-15T09:54:34.372Z,82
2024-03-15T09:55:31.748Z,82
2024-03-15T09:56:31.740Z,82
2024-03-15T09:57:31.768Z,82
2024-03-15T09:58:31.514Z,82
2024-03-15T09:59:31.708Z,82
2024-03-15T10:00:31.867Z,82
2024-03-15T10:01:31.865Z,83
2024-03-15T10:02:31.502Z,83
2024-03-15T10:03:31.793Z,83
2024-03-15T10:04:31.722Z,83
2024-03-15T10:05:31.734Z,83
2024-03-15T10:06:31.542Z,83
2024-03-15T10:07:31.759Z,83
2024-03-15T10:08:31.721Z,83
2024-03-15T10:09:31.730Z,83
2024-03-15T10:10:31.563Z,83
2024-03-15T10:11:31.734Z,83
2024-03-15T10:12:31.825Z,83
2024-03-15T10:13:31.974Z,83
2024-03-15T10:14:31.502Z,83
2024-03-15T10:15:31.741Z,83
2024-03-15T10:16:31.786Z,83
2024-03-15T10:17:31.783Z,83
2024-03-15T10:18:31.523Z,83
2024-03-15T10:19:31.738Z,83
2024-03-15T10:20:31.726Z,83
2024-03-15T10:21:31.772Z,83
2024-03-15T10:22:31.415Z,83
2024-03-15T10:23:31.745Z,82
2024-03-15T10:24:31.755Z,82
2024-03-15T10:25:31.795Z,83
2024-03-15T10:26:31.381Z,82
2024-03-15T10:27:31.826Z,82
2024-03-15T10:28:31.738Z,83
2024-03-15T10:29:31.714Z,83
2024-03-15T10:30:31.455Z,83
2024-03-15T10:31:31.687Z,83
2024-03-15T10:32:31.739Z,83
2024-03-15T10:33:31.965Z,83
2024-03-15T10:34:31.365Z,83
2024-03-15T10:35:31.736Z,83
2024-03-15T10:36:31.790Z,83
2024-03-15T10:37:31.753Z,83
2024-03-15T10:38:31.412Z,83
2024-03-15T10:39:31.788Z,84
2024-03-15T10:40:31.772Z,84
2024-03-15T10:41:31.785Z,84
2024-03-15T10:42:31.641Z,84
2024-03-15T10:43:31.722Z,84
2024-03-15T10:44:31.715Z,84
2024-03-15T10:45:31.816Z,84
2024-03-15T10:46:31.414Z,84
2024-03-15T10:47:31.782Z,84
2024-03-15T10:48:31.816Z,83
2024-03-15T10:49:31.751Z,83
2024-03-15T10:50:31.383Z,83
2024-03-15T10:51:31.730Z,83
2024-03-15T10:52:31.741Z,83
2024-03-15T10:53:31.755Z,83
2024-03-15T10:54:31.600Z,84
2024-03-15T10:55:31.706Z,84
2024-03-15T10:56:31.760Z,84
2024-03-15T10:57:31.758Z,84
2024-03-15T10:58:31.379Z,84
2024-03-15T10:59:31.657Z,84
2024-03-15T11:00:31.718Z,84
2024-03-15T11:01:31.787Z,84
2024-03-15T11:02:31.350Z,84
2024-03-15T11:03:31.952Z,84
2024-03-15T11:04:31.706Z,84
2024-03-15T11:05:31.908Z,84
2024-03-15T11:06:31.450Z,85
2024-03-15T11:07:31.750Z,85
2024-03-15T11:08:31.724Z,85
2024-03-15T11:09:31.725Z,85
2024-03-15T11:10:31.330Z,85
2024-03-15T11:11:31.710Z,85
2024-03-15T11:12:31.843Z,85
2024-03-15T11:13:31.713Z,85
2024-03-15T11:14:31.423Z,85
2024-03-15T11:15:31.703Z,85
2024-03-15T11:16:31.716Z,85
2024-03-15T11:17:31.757Z,85
2024-03-15T11:18:31.373Z,85
2024-03-15T11:19:31.801Z,85
2024-03-15T11:20:31.731Z,85
2024-03-15T11:21:31.723Z,86
2024-03-15T11:22:31.378Z,86
2024-03-15T11:23:33.086Z,86
2024-03-15T11:24:31.703Z,87
2024-03-15T11:25:31.761Z,87
2024-03-15T11:26:31.369Z,87
2024-03-15T11:27:31.764Z,87
2024-03-15T11:28:31.721Z,87
2024-03-15T11:29:31.663Z,88
2024-03-15T11:30:31.383Z,88
2024-03-15T11:31:31.754Z,89
2024-03-15T11:32:32.032Z,89
2024-03-15T11:33:31.778Z,89
2024-03-15T11:34:31.384Z,89
2024-03-15T11:35:33.253Z,89
2024-03-15T11:36:32.041Z,90
2024-03-15T11:37:31.703Z,90
2024-03-15T11:38:31.252Z,89
2024-03-15T11:39:31.701Z,89
2024-03-15T11:40:31.709Z,89
2024-03-15T11:41:33.364Z,90
2024-03-15T11:42:31.524Z,90
2024-03-15T11:43:31.748Z,89
2024-03-15T11:44:31.683Z,89
2024-03-15T11:45:31.739Z,89
2024-03-15T11:46:31.371Z,89
2024-03-15T11:47:33.508Z,89
2024-03-15T11:48:31.786Z,90
2024-03-15T11:49:31.757Z,89
2024-03-15T11:50:31.260Z,90
2024-03-15T11:51:31.756Z,89
2024-03-15T11:52:31.738Z,89
2024-03-15T11:53:32.968Z,90
2024-03-15T11:54:31.329Z,90
2024-03-15T11:55:31.674Z,90
2024-03-15T11:56:31.721Z,90
2024-03-15T11:57:31.681Z,90
2024-03-15T11:58:31.301Z,90
2024-03-15T11:59:33.453Z,90
2024-03-15T12:00:31.701Z,90
2024-03-15T12:01:31.918Z,90
2024-03-15T12:02:31.315Z,90
2024-03-15T12:03:31.750Z,90
2024-03-15T12:04:31.700Z,91
2024-03-15T12:05:33.955Z,91
2024-03-15T12:06:31.378Z,91
2024-03-15T12:07:31.718Z,91
2024-03-15T12:08:31.716Z,91
2024-03-15T12:09:31.827Z,91
2024-03-15T12:10:31.423Z,91
2024-03-15T12:11:33.514Z,91
2024-03-15T12:12:31.783Z,91
2024-03-15T12:13:31.738Z,91
2024-03-15T12:14:31.289Z,92
2024-03-15T12:15:31.956Z,92
2024-03-15T12:16:31.680Z,92
2024-03-15T12:17:33.723Z,92
2024-03-15T12:18:31.503Z,92
2024-03-15T12:19:31.784Z,92
2024-03-15T12:20:31.747Z,92
2024-03-15T12:21:31.784Z,92
2024-03-15T12:22:31.293Z,92
2024-03-15T12:23:33.379Z,92
2024-03-15T12:24:31.748Z,92
2024-03-15T12:25:31.690Z,92
2024-03-15T12:26:31.265Z,92
2024-03-15T12:27:31.703Z,92
2024-03-15T12:28:31.703Z,92
2024-03-15T12:29:33.312Z,93
2024-03-15T12:30:31.338Z,92
2024-03-15T12:31:31.717Z,92
2024-03-15T12:32:31.751Z,92
2024-03-15T12:33:31.873Z,92
2024-03-15T12:34:31.285Z,92
2024-03-15T12:35:33.467Z,92
2024-03-15T12:36:31.764Z,92
2024-03-15T12:37:31.697Z,92
2024-03-15T12:38:31.237Z,92
2024-03-15T12:39:31.800Z,92
2024-03-15T12:40:31.751Z,92
2024-03-15T12:41:33.412Z,92
2024-03-15T12:42:31.297Z,91
2024-03-15T12:43:31.789Z,91
2024-03-15T12:44:31.660Z,91
2024-03-15T12:45:31.788Z,91
2024-03-15T12:46:31.331Z,91
2024-03-15T12:47:31.712Z,91
2024-03-15T12:48:31.732Z,90
2024-03-15T12:49:31.674Z,90
2024-03-15T12:50:31.246Z,90
2024-03-15T12:51:31.754Z,90
2024-03-15T12:52:31.739Z,90
2024-03-15T12:53:31.700Z,90
2024-03-15T12:54:31.311Z,90
2024-03-15T12:55:31.675Z,90
2024-03-15T12:56:31.717Z,90
2024-03-15T12:57:31.772Z,90
2024-03-15T12:58:31.241Z,90
2024-03-15T12:59:31.698Z,90
2024-03-15T13:00:31.822Z,89
2024-03-15T13:01:31.848Z,90
2024-03-15T13:02:31.214Z,90
2024-03-15T13:03:31.711Z,90
2024-03-15T13:04:31.763Z,89
2024-03-15T13:05:31.743Z,89
2024-03-15T13:06:31.272Z,89
2024-03-15T13:07:31.735Z,89
2024-03-15T13:08:31.672Z,89
2024-03-15T13:09:31.746Z,89
2024-03-15T13:10:31.231Z,89
2024-03-15T13:11:31.829Z,89
2024-03-15T13:12:31.759Z,89
2024-03-15T13:13:31.760Z,89
2024-03-15T13:14:31.183Z,89
2024-03-15T13:15:31.783Z,89
2024-03-15T13:16:31.685Z,89
2024-03-15T13:17:31.794Z,88
2024-03-15T13:18:31.226Z,88
2024-03-15T13:19:31.687Z,88
2024-03-15T13:20:31.806Z,87
2024-03-15T13:21:31.773Z,86
2024-03-15T13:22:31.219Z,86
2024-03-15T13:23:31.704Z,86
2024-03-15T13:24:31.770Z,86
2024-03-15T13:25:36.972Z,86
2024-03-15T13:26:31.190Z,86
2024-03-15T13:27:31.748Z,86
2024-03-15T13:28:31.670Z,86
2024-03-15T13:29:31.736Z,86
2024-03-15T13:30:31.142Z,86
2024-03-15T13:31:31.682Z,86
2024-03-15T13:32:31.760Z,86
2024-03-15T13:33:31.726Z,86
2024-03-15T13:34:31.218Z,86
2024-03-15T13:35:31.744Z,86
2024-03-15T13:36:31.739Z,86
2024-03-15T13:37:31.724Z,86
2024-03-15T13:38:31.158Z,86
2024-03-15T13:39:31.743Z,85
2024-03-15T13:40:31.689Z,85
2024-03-15T13:41:31.692Z,85
2024-03-15T13:42:31.176Z,85
2024-03-15T13:43:31.666Z,85
2024-03-15T13:44:31.713Z,85
2024-03-15T13:45:31.758Z,86
2024-03-15T13:46:31.101Z,85
2024-03-15T13:47:31.710Z,85
2024-03-15T13:48:31.753Z,85
2024-03-15T13:49:31.745Z,85
2024-03-15T13:50:31.172Z,85
2024-03-15T13:51:31.720Z,86
2024-03-15T13:52:31.722Z,86
2024-03-15T13:53:31.741Z,87
2024-03-15T13:54:31.215Z,87
2024-03-15T13:55:31.774Z,87
2024-03-15T13:56:31.647Z,87
2024-03-15T13:57:31.688Z,87
2024-03-15T13:58:31.193Z,87
2024-03-15T13:59:31.694Z,87
2024-03-15T14:00:32.074Z,88
2024-03-15T14:01:31.760Z,88
2024-03-15T14:02:31.159Z,88
2024-03-15T14:03:31.723Z,88
2024-03-15T14:04:31.677Z,88
2024-03-15T14:05:31.709Z,88
2024-03-15T14:06:31.193Z,89
2024-03-15T14:07:31.668Z,89
2024-03-15T14:08:31.705Z,89
2024-03-15T14:09:31.732Z,89
2024-03-15T14:10:31.248Z,89
2024-03-15T14:11:31.670Z,89
2024-03-15T14:12:31.759Z,89
2024-03-15T14:13:31.741Z,90
2024-03-15T14:14:31.081Z,90
2024-03-15T14:15:31.757Z,90
2024-03-15T14:16:31.689Z,90